Time;durP1;ratioP1;P1;durP2;ratioP2;P2;SDS_P1;SDS_P2;PMS_P1;PMS_P2;Temp;Humidity;BMP_temperature;BMP_pressure;BME280_temperature;BME280_humidity;BME280_pressure;Samples;Min_cycle;Max_cycle;Signal;HPM_P1;HPM_P2
2022/04/19 00:01:00;;;;;;;4.70;2.58;;;14.20;48.10;;;;;;4925765;29;20040;-95
2022/04/19 00:03:29;;;;;;;2.85;2.00;;;14.20;47.90;;;;;;4898354;29;20046;-95
2022/04/19 00:05:55;;;;;;;3.33;2.20;;;14.20;47.60;;;;;;4900049;29;20045;-96
2022/04/19 00:08:30;;;;;;;3.28;2.30;;;14.20;47.80;;;;;;4899764;29;20446;-95
2022/04/19 00:10:59;;;;;;;3.85;2.55;;;14.20;47.40;;;;;;4899497;29;20108;-94
2022/04/19 00:13:25;;;;;;;3.40;2.20;;;14.30;47.70;;;;;;4885347;29;20132;-96
2022/04/19 00:15:50;;;;;;;3.97;2.38;;;14.40;47.70;;;;;;4899055;29;20505;-95
2022/04/19 00:18:16;;;;;;;3.72;2.42;;;14.40;48.30;;;;;;4882570;29;20055;-96
2022/04/19 00:23:38;;;;;;;4.13;2.45;;;14.20;47.30;;;;;;4824712;29;20039;-95
2022/04/19 00:26:10;;;;;;;2.72;2.10;;;14.20;47.20;;;;;;4878076;29;20112;-94
2022/04/19 00:28:36;;;;;;;3.67;2.47;;;14.20;47.10;;;;;;4881969;29;20057;-96
2022/04/19 00:31:08;;;;;;;3.28;2.10;;;14.20;46.80;;;;;;4899078;29;20083;-96
2022/04/19 00:33:33;;;;;;;4.63;2.35;;;14.20;46.50;;;;;;4898191;29;20119;-96
2022/04/19 00:35:59;;;;;;;2.70;2.03;;;14.20;46.50;;;;;;4899295;29;20075;-94
2022/04/19 00:38:25;;;;;;;2.75;2.00;;;14.30;46.30;;;;;;4882068;29;20545;-93
2022/04/19 00:40:50;;;;;;;2.75;2.13;;;14.30;46.70;;;;;;4898815;29;20056;-95
2022/04/19 00:43:26;;;;;;;5.60;2.40;;;14.30;46.20;;;;;;4897393;29;20052;-95
2022/04/19 00:45:58;;;;;;;3.65;2.20;;;14.30;45.90;;;;;;4891137;29;20110;-94
2022/04/19 00:48:23;;;;;;;3.13;2.13;;;14.30;45.70;;;;;;4897576;29;20532;-95
2022/04/19 00:50:50;;;;;;;3.28;2.38;;;14.40;45.90;;;;;;4899425;29;20049;-94
2022/04/19 00:53:25;;;;;;;3.92;2.25;;;14.40;46.00;;;;;;4907211;29;20044;-94
2022/04/19 00:55:51;;;;;;;3.85;2.00;;;14.50;46.20;;;;;;4919492;29;20123;-95
2022/04/19 00:58:19;;;;;;;3.15;2.25;;;14.50;46.20;;;;;;4919759;29;20055;-95
2022/04/19 01:00:45;;;;;;;4.05;2.90;;;14.50;45.80;;;;;;4903414;29;20095;-96
2022/04/19 01:03:11;;;;;;;4.20;2.72;;;14.60;45.90;;;;;;4920058;29;20032;-95
2022/04/19 01:05:36;;;;;;;4.03;2.58;;;14.50;45.70;;;;;;4902725;29;20040;-95
2022/04/19 01:08:02;;;;;;;4.28;2.38;;;14.50;45.60;;;;;;4921975;29;20075;-96
2022/04/19 01:10:29;;;;;;;2.97;2.10;;;14.50;45.60;;;;;;4907732;29;20071;-95
2022/04/19 01:16:05;;;;;;;4.72;2.35;;;14.50;45.40;;;;;;4865822;29;20045;-95
2022/04/19 01:18:31;;;;;;;2.25;2.03;;;14.40;45.70;;;;;;4866251;29;20037;-96
2022/04/19 01:20:58;;;;;;;3.30;2.60;;;14.40;45.90;;;;;;4886630;29;20074;-95
2022/04/19 01:23:24;;;;;;;4.97;2.40;;;14.40;46.20;;;;;;4907688;29;20041;-96
2022/04/19 01:25:50;;;;;;;3.70;2.33;;;14.40;46.20;;;;;;4923694;29;20032;-96
2022/04/19 01:28:19;;;;;;;4.80;2.35;;;14.30;45.80;;;;;;4921937;29;20067;-96
2022/04/19 01:30:52;;;;;;;3.55;2.00;;;14.30;46.00;;;;;;4904923;29;20036;-96
2022/04/19 01:33:23;;;;;;;2.67;2.30;;;14.20;46.10;;;;;;4903484;29;20033;-94
2022/04/19 01:35:50;;;;;;;4.05;2.70;;;14.20;46.10;;;;;;4910309;29;20103;-93
2022/04/19 01:38:16;;;;;;;4.45;2.40;;;14.00;45.30;;;;;;4927388;29;20040;-93
2022/04/19 01:40:41;;;;;;;3.90;2.17;;;14.00;45.90;;;;;;4903142;29;20032;-94
2022/04/19 01:43:17;;;;;;;3.63;2.80;;;14.00;45.80;;;;;;4920850;29;20136;-92
2022/04/19 01:45:43;;;;;;;3.13;2.13;;;14.00;45.80;;;;;;4904790;29;20036;-92
2022/04/19 01:48:08;;;;;;;2.58;2.22;;;14.00;46.10;;;;;;4922462;29;20060;-92
2022/04/19 01:50:46;;;;;;;3.65;2.38;;;13.90;46.50;;;;;;4903361;29;20108;-93
2022/04/19 01:53:12;;;;;;;5.80;2.55;;;13.90;46.10;;;;;;4913979;29;20063;-93
2022/04/19 01:55:38;;;;;;;3.08;2.35;;;13.70;45.80;;;;;;4919763;29;20037;-93
2022/04/19 01:58:07;;;;;;;4.55;2.22;;;13.70;45.80;;;;;;4919612;29;20039;-91
2022/04/19 02:00:36;;;;;;;2.38;2.17;;;13.70;45.80;;;;;;4904109;29;20040;-93
2022/04/19 02:03:03;;;;;;;2.85;2.15;;;13.70;45.50;;;;;;4904538;29;20047;-93
2022/04/19 02:05:29;;;;;;;2.65;2.35;;;13.70;45.50;;;;;;4919829;29;20062;-91
2022/04/19 02:07:54;;;;;;;3.15;2.25;;;13.60;45.30;;;;;;4904260;29;20060;-92
2022/04/19 02:10:20;;;;;;;3.97;2.20;;;13.60;45.30;;;;;;4920184;29;20041;-91
2022/04/19 02:12:46;;;;;;;2.70;2.25;;;13.60;45.40;;;;;;4919831;29;20067;-92
2022/04/19 02:15:15;;;;;;;3.22;2.47;;;13.60;45.30;;;;;;4903454;29;20135;-94
2022/04/19 02:17:49;;;;;;;3.05;2.13;;;13.60;45.20;;;;;;4903839;29;20028;-94
2022/04/19 02:20:17;;;;;;;3.83;2.50;;;13.60;45.50;;;;;;4919811;29;20055;-93
2022/04/19 02:22:46;;;;;;;3.22;2.38;;;13.70;45.60;;;;;;4920633;29;20033;-92
2022/04/19 02:25:13;;;;;;;4.40;2.77;;;13.70;45.30;;;;;;4904085;29;20135;-93
2022/04/19 02:27:42;;;;;;;3.60;2.38;;;13.70;45.30;;;;;;4903703;29;20430;-92
2022/04/19 02:30:14;;;;;;;3.63;2.33;;;13.70;45.50;;;;;;4920252;29;20038;-91
2022/04/19 02:32:48;;;;;;;3.63;2.55;;;13.70;45.70;;;;;;4895225;29;20568;-92
2022/04/19 02:35:18;;;;;;;3.88;2.38;;;13.70;46.20;;;;;;4920070;29;20036;-94
2022/04/19 02:38:02;;;;;;;3.20;2.37;;;13.60;46.00;;;;;;4902956;29;20060;-93
2022/04/19 02:40:27;;;;;;;3.08;2.20;;;13.50;45.70;;;;;;4919172;29;20284;-93
2022/04/19 02:42:56;;;;;;;4.40;2.90;;;13.50;45.90;;;;;;4902320;29;20040;-92
2022/04/19 02:45:23;;;;;;;3.75;2.65;;;13.60;46.40;;;;;;4882798;29;20410;-92
2022/04/19 02:48:21;;;;;;;4.05;2.38;;;13.40;45.60;;;;;;4867687;29;20469;-92
2022/04/19 02:50:49;;;;;;;4.38;2.50;;;13.20;46.00;;;;;;4864301;29;20044;-94
2022/04/19 02:53:14;;;;;;;4.72;2.75;;;13.20;45.90;;;;;;4884872;29;20127;-92
2022/04/19 02:55:49;;;;;;;3.40;2.80;;;13.30;46.30;;;;;;4882445;29;20105;-93
2022/04/19 02:58:20;;;;;;;3.58;2.15;;;13.40;46.40;;;;;;4883422;29;20029;-92
2022/04/19 03:00:46;;;;;;;4.75;2.72;;;13.40;46.40;;;;;;4880391;29;20069;-94
2022/04/19 03:03:19;;;;;;;3.58;2.42;;;13.50;46.40;;;;;;4882770;29;20052;-93
2022/04/19 03:05:45;;;;;;;2.80;2.53;;;13.50;46.40;;;;;;4881795;29;20062;-91
2022/04/19 03:08:11;;;;;;;2.50;2.20;;;13.50;46.50;;;;;;4887728;29;20053;-92
2022/04/19 03:10:42;;;;;;;4.88;2.85;;;13.50;46.60;;;;;;4880739;29;20033;-92
2022/04/19 03:13:11;;;;;;;4.68;2.65;;;13.50;46.70;;;;;;4881746;29;20140;-91
2022/04/19 03:15:43;;;;;;;4.63;2.50;;;13.50;46.60;;;;;;4882260;29;20033;-92
2022/04/19 03:18:09;;;;;;;4.50;2.60;;;13.50;46.60;;;;;;4883158;29;20051;-95
2022/04/19 03:20:34;;;;;;;4.25;2.60;;;13.50;46.80;;;;;;4888370;29;20084;-96
2022/04/19 03:28:40;;;;;;;4.18;2.75;;;13.50;47.20;;;;;;4882903;29;20094;-94
2022/04/19 03:31:07;;;;;;;4.18;2.58;;;13.50;47.20;;;;;;4884131;29;20037;-96
2022/04/19 03:33:36;;;;;;;4.50;3.13;;;13.40;47.10;;;;;;4882685;29;20090;-96
2022/04/19 03:36:02;;;;;;;4.03;2.63;;;13.40;47.30;;;;;;4883048;29;20045;-95
2022/04/19 03:38:28;;;;;;;4.63;2.95;;;13.40;47.80;;;;;;4882046;29;20095;-95
2022/04/19 03:41:02;;;;;;;2.90;2.50;;;13.40;47.70;;;;;;4882915;29;20462;-95
2022/04/19 03:43:32;;;;;;;3.83;2.78;;;13.40;48.50;;;;;;4887221;29;20060;-96
2022/04/19 03:46:07;;;;;;;5.67;3.10;;;13.40;47.90;;;;;;4921726;29;20124;-96
2022/04/19 03:48:32;;;;;;;4.13;2.78;;;13.40;47.80;;;;;;4903676;29;20044;-94
2022/04/19 03:50:58;;;;;;;5.07;3.10;;;13.40;47.70;;;;;;4909489;29;20044;-94
2022/04/19 03:53:31;;;;;;;6.13;3.45;;;13.40;47.90;;;;;;4900763;29;20036;-96
2022/04/19 03:56:00;;;;;;;5.60;2.80;;;13.40;48.10;;;;;;4919831;29;20032;-96
2022/04/19 03:58:27;;;;;;;6.95;3.17;;;13.40;48.20;;;;;;4919662;29;20044;-96
2022/04/19 04:01:03;;;;;;;4.72;2.67;;;13.40;48.30;;;;;;4918787;29;20104;-96
2022/04/19 04:03:32;;;;;;;4.13;3.00;;;13.40;48.30;;;;;;4902260;29;20052;-96
2022/04/19 04:05:57;;;;;;;4.90;3.15;;;13.40;48.30;;;;;;4911309;29;20040;-95
2022/04/19 04:08:23;;;;;;;5.22;3.00;;;13.40;48.10;;;;;;4920421;29;20052;-95
2022/04/19 04:10:55;;;;;;;3.90;3.25;;;13.30;48.00;;;;;;4919152;29;20222;-95
2022/04/19 04:13:20;;;;;;;4.88;2.80;;;13.30;48.00;;;;;;4903867;29;20055;-94
2022/04/19 04:15:46;;;;;;;3.58;2.92;;;13.30;48.60;;;;;;4919823;29;20032;-95
2022/04/19 04:18:15;;;;;;;3.97;2.88;;;13.30;47.80;;;;;;4920788;29;20044;-96
2022/04/19 04:20:41;;;;;;;4.30;2.75;;;13.30;48.20;;;;;;4923736;29;20384;-94
2022/04/19 04:23:06;;;;;;;4.15;3.00;;;13.30;48.40;;;;;;4925221;29;20040;-94
2022/04/19 04:25:32;;;;;;;4.13;3.28;;;13.30;48.10;;;;;;4918209;29;20059;-96
2022/04/19 04:27:58;;;;;;;4.97;3.38;;;13.30;47.70;;;;;;4919021;29;20124;-94
2022/04/19 04:30:26;;;;;;;4.72;3.40;;;13.30;47.80;;;;;;4901462;29;20192;-96
2022/04/19 04:32:53;;;;;;;4.07;3.20;;;13.30;47.90;;;;;;4904620;29;20067;-95
2022/04/19 04:35:25;;;;;;;4.10;3.17;;;13.30;48.00;;;;;;4913573;29;20075;-95
2022/04/19 04:37:51;;;;;;;4.15;3.00;;;13.30;47.90;;;;;;4922164;29;20032;-94
2022/04/19 04:40:17;;;;;;;4.00;2.90;;;13.30;47.70;;;;;;4921589;29;20473;-94
2022/04/19 04:42:48;;;;;;;3.92;3.10;;;13.20;48.60;;;;;;4905725;29;20071;-96
2022/04/19 04:45:17;;;;;;;5.28;3.03;;;13.20;48.00;;;;;;4887083;29;20053;-94
2022/04/19 04:50:30;;;;;;;5.20;2.92;;;13.20;48.00;;;;;;4890190;29;20044;-95
2022/04/19 04:52:56;;;;;;;3.55;2.78;;;13.30;48.10;;;;;;4870812;29;20045;-94
2022/04/19 04:55:28;;;;;;;5.18;3.13;;;13.30;48.10;;;;;;4887843;29;20037;-93
2022/04/19 04:58:10;;;;;;;5.45;3.35;;;13.30;48.30;;;;;;4885540;29;20037;-95
2022/04/19 05:00:35;;;;;;;4.93;3.33;;;13.30;48.20;;;;;;4880987;29;20042;-96
2022/04/19 05:03:01;;;;;;;4.25;3.05;;;13.30;48.50;;;;;;4888290;29;20490;-94
2022/04/19 05:05:30;;;;;;;5.18;3.22;;;13.40;48.70;;;;;;4885404;29;20025;-95
2022/04/19 05:07:58;;;;;;;4.25;3.03;;;13.40;48.70;;;;;;4885243;29;20499;-95
2022/04/19 05:10:24;;;;;;;6.40;3.40;;;13.40;48.90;;;;;;4882952;29;20041;-93
2022/04/19 05:12:50;;;;;;;4.70;3.25;;;13.40;48.80;;;;;;4883303;29;20045;-93
2022/04/19 05:15:15;;;;;;;5.60;3.40;;;13.40;49.10;;;;;;4883041;29;20056;-94
2022/04/19 05:17:50;;;;;;;4.70;3.42;;;13.50;49.20;;;;;;4883581;29;20111;-96
2022/04/19 05:20:19;;;;;;;4.70;3.38;;;13.50;49.20;;;;;;4883174;29;20040;-96
2022/04/19 05:22:47;;;;;;;6.13;4.18;;;13.60;48.90;;;;;;4883041;29;20041;-96
2022/04/19 05:25:13;;;;;;;4.38;3.28;;;13.70;48.20;;;;;;4879908;29;20036;-95
2022/04/19 05:27:39;;;;;;;5.65;3.63;;;13.70;48.00;;;;;;4882609;29;20536;-94
2022/04/19 05:30:09;;;;;;;4.47;3.35;;;13.80;48.20;;;;;;4881229;29;20052;-95
2022/04/19 05:32:35;;;;;;;4.18;3.08;;;13.80;48.20;;;;;;4882104;29;20037;-96
2022/04/19 05:35:01;;;;;;;5.22;2.70;;;13.80;48.30;;;;;;4885090;29;20052;-96
2022/04/19 05:37:37;;;;;;;4.63;3.53;;;13.90;48.40;;;;;;4884758;29;20509;-95
2022/04/19 05:40:18;;;;;;;4.78;3.45;;;13.90;48.50;;;;;;4879694;29;20061;-96
2022/04/19 05:42:48;;;;;;;4.53;3.30;;;14.00;48.20;;;;;;4886425;29;20466;-95
2022/04/19 05:45:19;;;;;;;4.22;3.13;;;14.00;48.50;;;;;;4881518;29;20155;-96
2022/04/19 05:47:48;;;;;;;3.33;2.97;;;14.00;48.60;;;;;;4883567;29;20109;-96
2022/04/19 05:50:26;;;;;;;4.18;3.20;;;14.10;48.80;;;;;;4881219;29;20144;-96
2022/04/19 05:52:55;;;;;;;4.45;3.10;;;14.10;48.70;;;;;;4885826;29;20045;-96
2022/04/19 05:55:23;;;;;;;4.90;3.35;;;14.10;48.20;;;;;;4884155;29;20098;-95
2022/04/19 05:57:51;;;;;;;6.45;3.00;;;14.20;48.30;;;;;;4880858;29;20041;-96
2022/04/19 06:00:31;;;;;;;4.95;2.85;;;14.20;48.30;;;;;;4889090;29;20040;-94
2022/04/19 06:08:16;;;;;;;4.75;2.92;;;14.50;48.50;;;;;;4901580;23;20147;-74
2022/04/19 06:10:43;;;;;;;4.10;2.63;;;14.60;47.80;;;;;;4898802;29;20036;-74
2022/04/19 06:13:08;;;;;;;3.50;2.90;;;14.70;48.00;;;;;;4881150;29;20116;-76
2022/04/19 06:15:37;;;;;;;3.22;2.78;;;14.80;47.90;;;;;;4895072;29;20465;-76
2022/04/19 06:18:03;;;;;;;4.10;2.90;;;14.80;46.80;;;;;;4876952;29;20389;-75
2022/04/19 06:20:29;;;;;;;3.33;2.85;;;14.90;46.90;;;;;;4879655;29;20049;-79
2022/04/19 06:22:54;;;;;;;3.75;3.10;;;14.90;46.80;;;;;;4890930;29;20120;-78
2022/04/19 06:25:32;;;;;;;4.03;3.05;;;15.00;47.60;;;;;;4895187;29;20032;-74
2022/04/19 06:27:58;;;;;;;4.00;3.00;;;14.90;46.90;;;;;;4888744;29;20068;-74
2022/04/19 06:30:24;;;;;;;4.32;2.92;;;14.80;47.20;;;;;;4882383;29;20064;-75
2022/04/19 06:32:51;;;;;;;6.85;3.08;;;14.80;47.20;;;;;;4896288;29;20516;-75
2022/04/19 06:35:17;;;;;;;14.00;2.83;;;14.90;49.00;;;;;;4897536;29;20517;-74
2022/04/19 06:37:42;;;;;;;4.28;2.50;;;15.00;48.80;;;;;;4871125;29;20126;-73
2022/04/19 06:40:09;;;;;;;3.78;2.55;;;15.10;48.40;;;;;;4894152;29;20449;-74
2022/04/19 06:42:35;;;;;;;2.90;2.20;;;15.20;48.00;;;;;;4898882;29;20115;-75
2022/04/19 06:45:02;;;;;;;3.30;2.33;;;15.30;48.40;;;;;;4882001;29;20073;-81
2022/04/19 06:47:27;;;;;;;3.00;2.20;;;15.30;48.40;;;;;;4882052;29;20437;-77
2022/04/19 06:49:57;;;;;;;5.80;2.08;;;15.30;48.40;;;;;;4883091;29;20116;-80
2022/04/19 06:52:24;;;;;;;2.95;1.88;;;15.50;48.20;;;;;;4898723;29;20051;-74
2022/04/19 06:54:50;;;;;;;2.80;1.90;;;15.50;47.60;;;;;;4898926;29;20072;-74
2022/04/19 06:57:15;;;;;;;3.20;2.00;;;15.50;47.60;;;;;;4899031;29;20124;-74
2022/04/19 06:59:41;;;;;;;2.72;1.90;;;15.50;48.50;;;;;;4898249;29;20734;-75
2022/04/19 07:02:07;;;;;;;3.72;1.90;;;15.60;48.40;;;;;;4895914;29;20056;-74
2022/04/19 07:04:33;;;;;;;4.45;2.30;;;15.60;48.70;;;;;;4894600;29;20385;-75
2022/04/19 07:06:59;;;;;;;2.90;1.75;;;15.60;50.10;;;;;;4890256;29;20175;-73
2022/04/19 07:09:24;;;;;;;3.38;1.85;;;15.60;50.30;;;;;;4899272;29;20049;-83
2022/04/19 07:11:51;;;;;;;1.95;1.73;;;15.70;50.40;;;;;;4878951;29;20041;-75
2022/04/19 07:14:17;;;;;;;2.85;1.85;;;15.60;49.90;;;;;;4898230;29;20040;-76
2022/04/19 07:16:42;;;;;;;2.28;1.50;;;15.70;49.90;;;;;;4899654;29;20048;-76
2022/04/19 07:19:08;;;;;;;3.05;1.60;;;15.70;50.00;;;;;;4898802;29;20033;-76
2022/04/19 07:26:37;;;;;;;3.15;1.67;;;15.80;48.10;;;;;;4899063;29;20097;-75
2022/04/19 07:27:12;;;;;;;2.80;1.77;;;15.70;48.40;;;;;;4898955;29;20044;-75
2022/04/19 07:29:38;;;;;;;2.22;1.70;;;15.80;48.80;;;;;;4898783;29;20401;-76
2022/04/19 07:32:04;;;;;;;3.15;1.70;;;15.90;49.30;;;;;;4898941;29;20036;-76
2022/04/19 07:34:30;;;;;;;4.90;1.40;;;16.00;49.60;;;;;;4899364;29;20029;-77
2022/04/19 07:36:57;;;;;;;2.45;1.40;;;16.00;48.80;;;;;;4900526;29;20397;-76
2022/04/19 07:39:22;;;;;;;2.30;1.38;;;16.20;48.60;;;;;;4871858;29;20953;-77
2022/04/19 07:41:49;;;;;;;2.15;1.42;;;16.20;48.00;;;;;;4883625;29;20044;-76
2022/04/19 07:44:18;;;;;;;1.88;1.20;;;16.30;46.40;;;;;;4897005;29;20041;-76
2022/04/19 07:46:44;;;;;;;2.58;1.50;;;16.40;47.20;;;;;;4899173;29;20062;-76
2022/04/19 07:49:10;;;;;;;5.47;1.73;;;16.30;45.60;;;;;;4896146;29;20474;-76
2022/04/19 07:51:35;;;;;;;3.83;1.25;;;16.20;46.60;;;;;;4911501;29;20044;-76
2022/04/19 07:54:02;;;;;;;133.63;106.95;;;16.30;46.80;;;;;;4895750;29;20033;-77
2022/04/19 07:56:27;;;;;;;134.07;108.65;;;16.40;47.00;;;;;;4898612;29;20092;-77
2022/04/19 07:58:53;;;;;;;161.15;135.18;;;16.40;47.30;;;;;;4882908;29;20128;-76
2022/04/19 08:01:19;;;;;;;14.18;11.93;;;16.60;47.60;;;;;;4900827;29;20070;-76
2022/04/19 08:03:46;;;;;;;5.00;3.92;;;16.60;47.00;;;;;;4881385;29;20056;-77
2022/04/19 08:06:12;;;;;;;3.08;2.20;;;16.70;47.00;;;;;;4887509;29;20481;-76
2022/04/19 08:08:38;;;;;;;2.50;1.50;;;16.70;46.80;;;;;;4877417;29;20067;-76
2022/04/19 08:11:04;;;;;;;1.67;1.17;;;16.80;47.30;;;;;;4891057;29;20172;-76
2022/04/19 08:13:30;;;;;;;2.33;1.38;;;16.90;47.30;;;;;;4894760;29;20115;-77
2022/04/19 08:15:56;;;;;;;1.52;1.10;;;17.10;47.10;;;;;;4889567;29;20116;-76
2022/04/19 08:18:22;;;;;;;2.28;1.40;;;17.20;46.30;;;;;;4875230;29;20136;-76
2022/04/19 08:20:50;;;;;;;1.98;1.45;;;17.40;44.80;;;;;;4888482;29;20178;-76
2022/04/19 08:23:15;;;;;;;1.65;1.33;;;17.50;44.50;;;;;;4893962;29;20063;-75
2022/04/19 08:25:43;;;;;;;1.55;1.17;;;17.50;44.40;;;;;;4876779;29;20170;-75
2022/04/19 08:28:09;;;;;;;3.95;1.40;;;17.70;44.20;;;;;;4893181;29;20116;-75
2022/04/19 08:30:35;;;;;;;2.67;1.80;;;17.80;43.60;;;;;;4898350;29;20092;-76
2022/04/19 08:33:01;;;;;;;2.15;1.45;;;17.90;43.10;;;;;;4895375;29;20157;-77
2022/04/19 08:35:27;;;;;;;4.18;1.42;;;18.00;41.50;;;;;;4897087;29;20127;-76
2022/04/19 08:37:53;;;;;;;3.22;1.60;;;18.00;41.90;;;;;;4897177;29;20735;-76
2022/04/19 08:40:19;;;;;;;2.65;1.65;;;18.00;41.30;;;;;;4897101;29;20165;-76
2022/04/19 08:42:46;;;;;;;2.83;1.77;;;18.00;40.80;;;;;;4894769;29;20096;-76
2022/04/19 08:45:14;;;;;;;5.45;2.10;;;18.10;40.10;;;;;;4895060;29;20478;-76
2022/04/19 08:47:42;;;;;;;3.80;1.98;;;18.10;40.40;;;;;;4893927;29;20504;-76
2022/04/19 08:50:28;;;;;;;2.00;1.58;;;18.20;40.80;;;;;;4896887;29;20037;-76
2022/04/19 08:58:22;;;;;;;2.55;1.92;;;18.20;41.40;;;;;;4893935;29;20466;-77
2022/04/19 09:00:58;;;;;;;3.10;1.45;;;18.30;41.30;;;;;;4878420;29;20041;-76
2022/04/19 09:03:25;;;;;;;2.08;1.40;;;18.30;40.80;;;;;;4885196;29;20109;-76
2022/04/19 09:05:52;;;;;;;2.67;1.80;;;18.30;41.50;;;;;;4895461;29;20466;-76
2022/04/19 09:08:19;;;;;;;2.63;1.83;;;18.30;41.30;;;;;;4893639;29;20037;-76
2022/04/19 09:10:45;;;;;;;3.38;1.73;;;18.20;40.60;;;;;;4890733;29;20355;-77
2022/04/19 09:13:14;;;;;;;2.60;1.65;;;18.20;41.50;;;;;;4897049;29;20040;-76
2022/04/19 09:15:41;;;;;;;1.92;1.55;;;18.20;41.40;;;;;;4881641;29;20531;-74
2022/04/19 09:18:30;;;;;;;2.47;1.48;;;18.20;41.40;;;;;;4893325;29;20128;-77
2022/04/19 09:21:00;;;;;;;3.08;1.70;;;18.20;42.00;;;;;;4883175;29;20041;-77
2022/04/19 09:23:29;;;;;;;4.32;1.60;;;18.30;42.50;;;;;;4887785;29;20041;-76
2022/04/19 09:26:00;;;;;;;3.53;2.00;;;18.30;42.40;;;;;;4892395;29;20037;-78
2022/04/19 09:28:27;;;;;;;3.00;2.10;;;18.40;43.00;;;;;;4898011;29;20037;-78
2022/04/19 09:30:58;;;;;;;3.25;1.40;;;18.40;43.60;;;;;;4901150;29;20494;-78
2022/04/19 09:33:29;;;;;;;4.38;1.70;;;18.40;43.90;;;;;;4892296;29;20040;-79
2022/04/19 09:35:59;;;;;;;2.95;1.92;;;18.50;44.40;;;;;;4893464;29;20063;-77
2022/04/19 09:38:39;;;;;;;2.63;1.70;;;18.60;45.10;;;;;;4897433;29;20100;-78
2022/04/19 09:41:07;;;;;;;4.40;1.88;;;18.70;45.00;;;;;;4897604;29;20116;-78
2022/04/19 09:43:33;;;;;;;2.63;1.55;;;18.90;45.00;;;;;;4917769;29;20056;-78
2022/04/19 09:46:03;;;;;;;3.05;1.50;;;18.90;44.90;;;;;;4904579;29;20100;-78
2022/04/19 09:48:35;;;;;;;2.58;1.52;;;18.90;44.80;;;;;;4902117;29;20049;-77
2022/04/19 09:51:06;;;;;;;1.73;1.38;;;18.90;45.10;;;;;;4901031;29;20364;-78
2022/04/19 09:53:40;;;;;;;2.33;1.30;;;18.80;45.80;;;;;;4898936;29;20056;-78
2022/04/19 09:56:11;;;;;;;2.50;1.63;;;18.90;46.50;;;;;;4901068;29;20124;-77
2022/04/19 09:58:44;;;;;;;2.10;1.30;;;18.90;47.10;;;;;;4897256;29;20054;-77
2022/04/19 10:09:25;;;;;;;1.73;1.15;;;19.20;45.90;;;;;;4896877;29;20085;-78
2022/04/19 10:11:51;;;;;;;2.60;1.83;;;19.30;45.80;;;;;;4883176;29;20033;-78
2022/04/19 10:14:21;;;;;;;1.27;1.17;;;19.40;45.90;;;;;;4900587;29;20037;-78
2022/04/19 10:16:51;;;;;;;3.80;1.33;;;19.40;45.90;;;;;;4900707;29;20037;-79
2022/04/19 10:19:18;;;;;;;1.85;1.50;;;19.40;46.10;;;;;;4883346;29;20052;-79
2022/04/19 10:21:46;;;;;;;1.92;1.30;;;19.50;46.10;;;;;;4899849;29;20044;-78
2022/04/19 10:24:13;;;;;;;2.35;1.27;;;19.50;46.00;;;;;;4900837;29;20605;-78
2022/04/19 10:26:43;;;;;;;3.00;1.42;;;19.70;46.20;;;;;;4902416;29;20396;-78
2022/04/19 10:29:26;;;;;;;2.55;1.38;;;19.80;46.70;;;;;;4913390;29;20044;-77
2022/04/19 10:32:03;;;;;;;2.08;1.50;;;19.90;46.70;;;;;;4897001;29;20043;-76
2022/04/19 10:34:32;;;;;;;2.38;1.35;;;20.00;46.20;;;;;;4897320;29;20052;-76
2022/04/19 10:37:18;;;;;;;2.45;1.42;;;20.20;46.20;;;;;;4897587;29;20581;-76
2022/04/19 10:39:46;;;;;;;4.07;1.60;;;20.20;46.40;;;;;;4897241;29;20169;-80
2022/04/19 10:42:32;;;;;;;2.30;1.40;;;20.10;46.90;;;;;;4900481;29;20045;-80
2022/04/19 10:45:19;;;;;;;2.03;1.40;;;20.30;46.90;;;;;;4896675;29;20590;-80
2022/04/19 10:47:54;;;;;;;2.25;1.23;;;20.50;45.50;;;;;;4893065;29;20048;-80
2022/04/19 10:50:25;;;;;;;2.92;1.73;;;20.70;45.00;;;;;;4887992;29;20040;-79
2022/04/19 10:52:52;;;;;;;4.90;2.67;;;20.90;45.20;;;;;;4896890;29;20119;-79
2022/04/19 10:55:23;;;;;;;4.57;2.58;;;20.90;46.00;;;;;;4883060;29;20475;-79
2022/04/19 10:58:08;;;;;;;3.35;1.80;;;21.10;45.80;;;;;;4898821;29;20386;-80
2022/04/19 11:00:34;;;;;;;2.28;1.85;;;21.40;45.70;;;;;;4900051;29;20035;-79
2022/04/19 11:03:05;;;;;;;5.65;2.08;;;21.60;44.50;;;;;;4896677;29;20413;-80
2022/04/19 11:05:34;;;;;;;1.95;1.60;;;21.60;42.90;;;;;;4889448;29;20047;-79
2022/04/19 11:08:30;;;;;;;1.65;1.30;;;21.70;44.40;;;;;;4896580;29;20071;-79
2022/04/19 11:10:55;;;;;;;2.60;1.58;;;21.80;43.70;;;;;;4899398;29;20068;-80
2022/04/19 11:13:27;;;;;;;3.13;1.40;;;21.90;43.60;;;;;;4900413;29;20068;-80
2022/04/19 11:16:07;;;;;;;2.38;1.60;;;22.00;42.50;;;;;;4892840;29;20041;-79
2022/04/19 11:18:39;;;;;;;2.90;1.63;;;22.00;42.30;;;;;;4883421;29;20041;-79
2022/04/19 11:21:22;;;;;;;2.33;1.70;;;22.10;42.60;;;;;;4895275;29;20446;-80
2022/04/19 11:23:49;;;;;;;2.33;1.50;;;21.90;43.70;;;;;;4888728;29;20041;-79
2022/04/19 11:26:30;;;;;;;1.65;1.20;;;22.00;43.50;;;;;;4898262;29;20088;-80
2022/04/19 11:29:11;;;;;;;4.35;2.15;;;22.10;42.50;;;;;;4898381;29;20063;-80
2022/04/19 11:31:45;;;;;;;3.40;2.00;;;22.30;42.90;;;;;;4899331;29;20108;-80
2022/04/19 11:34:15;;;;;;;2.65;1.30;;;22.60;42.40;;;;;;4896341;29;20401;-80
2022/04/19 11:36:41;;;;;;;3.88;1.88;;;22.80;41.00;;;;;;4899138;29;20466;-80
2022/04/19 11:39:07;;;;;;;1.98;1.52;;;23.30;41.00;;;;;;4898346;29;20112;-80
2022/04/19 11:46:44;;;;;;;3.63;1.92;;;25.50;38.30;;;;;;4897274;29;20040;-81
2022/04/19 11:49:22;;;;;;;3.25;2.10;;;26.10;37.00;;;;;;4896917;29;20104;-81
2022/04/19 11:51:54;;;;;;;5.22;2.33;;;26.10;37.00;;;;;;4880877;29;20068;-80
2022/04/19 11:54:24;;;;;;;2.08;1.48;;;25.50;37.30;;;;;;4890959;29;20112;-80
2022/04/19 11:56:54;;;;;;;2.30;1.70;;;25.90;37.10;;;;;;4896640;29;20402;-80
2022/04/19 11:59:38;;;;;;;2.28;1.60;;;26.40;36.50;;;;;;4891068;29;20120;-81
2022/04/19 12:02:12;;;;;;;2.88;1.92;;;26.80;36.40;;;;;;4897372;29;20044;-81
2022/04/19 12:04:47;;;;;;;3.92;2.15;;;27.00;35.70;;;;;;4894782;29;20036;-80
2022/04/19 12:07:13;;;;;;;2.13;1.70;;;27.30;35.50;;;;;;4898564;29;20058;-80
2022/04/19 12:09:39;;;;;;;1.88;1.60;;;27.30;35.10;;;;;;4897882;29;20041;-80
2022/04/19 12:12:06;;;;;;;3.60;1.80;;;27.50;34.40;;;;;;4898121;29;20048;-80
2022/04/19 12:14:34;;;;;;;2.38;1.90;;;27.70;35.10;;;;;;4896632;29;20553;-80
2022/04/19 12:17:06;;;;;;;2.83;2.15;;;27.70;35.40;;;;;;4896515;29;20549;-80
2022/04/19 12:19:40;;;;;;;5.40;2.72;;;27.90;35.50;;;;;;4881430;29;20072;-79
2022/04/19 12:22:24;;;;;;;3.38;1.73;;;27.60;34.90;;;;;;4898968;29;20044;-81
2022/04/19 12:24:58;;;;;;;3.65;1.75;;;27.70;34.30;;;;;;4897910;29;20044;-80
2022/04/19 12:27:32;;;;;;;2.90;2.15;;;27.80;33.90;;;;;;4897450;29;20049;-80
2022/04/19 13:25:41;;;;;;;2.50;1.55;;;22.40;42.30;;;;;;4900375;29;20068;-77
2022/04/19 13:28:45;;;;;;;3.10;1.80;;;22.20;41.90;;;;;;4902702;29;20048;-77
2022/04/19 13:51:22;;;;;;;1.85;1.40;;;21.20;43.80;;;;;;4897832;29;20067;-76
2022/04/19 13:54:07;;;;;;;2.53;1.90;;;21.10;44.30;;;;;;4886684;29;20573;-77
2022/04/19 13:57:10;;;;;;;3.08;1.58;;;21.00;44.70;;;;;;4896231;29;20045;-77
2022/04/19 14:13:03;;;;;;;3.72;1.80;;;20.30;47.60;;;;;;4879154;29;20035;-76
2022/04/19 14:21:54;;;;;;;2.33;1.58;;;19.90;49.70;;;;;;4900690;29;20031;-78
2022/04/19 14:34:44;;;;;;;2.17;1.85;;;19.50;49.30;;;;;;4881883;29;20039;-77
2022/04/19 14:37:47;;;;;;;4.40;2.00;;;19.50;48.80;;;;;;4880596;29;20636;-76
2022/04/19 14:56:06;;;;;;;3.00;1.52;;;19.00;50.70;;;;;;4889123;29;20060;-76
2022/04/19 16:02:42;;;;;;;3.20;1.75;;;18.10;52.80;;;;;;4896448;29;20849;-77
2022/04/19 16:05:08;;;;;;;4.10;2.08;;;18.20;52.70;;;;;;4879256;29;20041;-77
2022/04/19 16:07:34;;;;;;;5.20;2.25;;;18.10;53.10;;;;;;4892738;29;20056;-77
2022/04/19 16:10:00;;;;;;;2.58;1.67;;;18.20;52.90;;;;;;4889718;29;20044;-77
2022/04/19 16:12:26;;;;;;;3.25;2.15;;;18.20;52.70;;;;;;4891628;29;20048;-78
2022/04/19 16:14:52;;;;;;;3.88;2.15;;;18.10;53.00;;;;;;4897545;29;20025;-76
2022/04/19 16:25:41;;;;;;;4.72;2.08;;;18.00;54.00;;;;;;4891377;29;20048;-75
2022/04/19 16:28:07;;;;;;;4.90;2.00;;;18.00;53.80;;;;;;4870388;29;20052;-75
2022/04/19 16:30:32;;;;;;;4.97;1.90;;;17.80;54.50;;;;;;4891305;29;20088;-75
2022/04/19 16:32:58;;;;;;;5.75;2.45;;;17.90;54.40;;;;;;4894256;29;20052;-75
2022/04/19 16:35:24;;;;;;;5.30;2.20;;;17.90;55.50;;;;;;4890296;29;20041;-75
2022/04/19 16:37:50;;;;;;;3.55;1.73;;;17.90;54.90;;;;;;4893471;29;20063;-77
2022/04/19 16:40:15;;;;;;;3.38;2.13;;;18.00;55.00;;;;;;4877689;29;20072;-77
2022/04/19 16:42:42;;;;;;;5.28;2.00;;;18.00;55.70;;;;;;4869558;29;20410;-80
2022/04/19 16:45:09;;;;;;;4.85;2.38;;;18.00;56.30;;;;;;4891874;29;20040;-78
2022/04/19 16:47:34;;;;;;;5.68;2.30;;;17.90;55.80;;;;;;4897202;29;20088;-78
2022/04/19 16:50:00;;;;;;;6.70;2.42;;;17.90;56.80;;;;;;4896650;29;20533;-78
2022/04/19 16:52:26;;;;;;;5.95;2.70;;;17.90;56.40;;;;;;4895840;29;20047;-78